createdAt,value
2023-05-15T00:02:25.994Z,16.39404296875
2023-05-15T00:12:25.743Z,16.19873046875
2023-05-15T00:22:25.668Z,16.69921875
2023-05-15T00:32:25.640Z,16.50390625
2023-05-15T00:42:25.527Z,16.69921875
2023-05-15T00:52:25.459Z,17.10205078125
2023-05-15T01:02:25.553Z,16.6015625
2023-05-15T01:12:25.383Z,16.50390625
2023-05-15T01:22:25.233Z,15.7958984375
2023-05-15T01:32:25.238Z,14.404296875
2023-05-15T01:42:25.092Z,13.5009765625
2023-05-15T01:52:25.015Z,13.7939453125
2023-05-15T02:02:25.041Z,14.697265625
2023-05-15T02:12:24.891Z,15.29541015625
2023-05-15T02:22:24.810Z,14.697265625
2023-05-15T02:32:24.765Z,14.00146484375
2023-05-15T02:42:24.714Z,13.7939453125
2023-05-15T02:52:24.670Z,14.09912109375
2023-05-15T03:02:24.543Z,14.09912109375
2023-05-15T03:12:24.437Z,13.90380859375
2023-05-15T03:22:24.409Z,13.5009765625
2023-05-15T03:32:24.317Z,12.90283203125
2023-05-15T03:42:24.223Z,12.298583984375
2023-05-15T03:52:24.149Z,12.298583984375
2023-05-15T04:02:24.199Z,11.700439453125
2023-05-15T04:12:24.127Z,11.199951171875
2023-05-15T04:22:23.931Z,11.102294921875
2023-05-15T04:32:23.941Z,10.90087890625
2023-05-15T04:42:23.957Z,10.699462890625
2023-05-15T04:52:23.731Z,10.797119140625
2023-05-15T05:02:23.706Z,10.699462890625
2023-05-15T05:12:24.004Z,10.699462890625
2023-05-15T05:22:23.533Z,10.601806640625
2023-05-15T05:32:23.509Z,10.699462890625
2023-05-15T05:42:23.399Z,10.797119140625
2023-05-15T05:52:23.329Z,10.699462890625
2023-05-15T06:02:23.288Z,10.797119140625
2023-05-15T06:12:23.264Z,10.90087890625
2023-05-15T06:22:23.224Z,10.90087890625
2023-05-15T06:32:23.025Z,10.797119140625
2023-05-15T06:42:22.937Z,10.797119140625
2023-05-15T06:52:22.882Z,10.90087890625
2023-05-15T07:02:23.081Z,10.90087890625
2023-05-15T07:12:22.778Z,10.90087890625
2023-05-15T07:22:22.768Z,10.90087890625
2023-05-15T07:32:22.674Z,10.699462890625
2023-05-15T07:42:22.522Z,10.699462890625
2023-05-15T07:52:22.493Z,10.601806640625
2023-05-15T08:02:22.446Z,10.498046875
2023-05-15T08:12:22.321Z,10.400390625
2023-05-15T08:22:22.238Z,10.101318359375
2023-05-15T08:32:22.255Z,10.302734375
2023-05-15T08:42:22.120Z,10.302734375
2023-05-15T08:52:22.034Z,10.302734375
2023-05-15T09:02:22.100Z,10.302734375
2023-05-15T09:12:21.881Z,10.198974609375
2023-05-15T09:22:21.955Z,10.198974609375
2023-05-15T09:32:21.851Z,10.198974609375
2023-05-15T09:42:21.946Z,10.302734375
2023-05-15T09:52:21.617Z,10.198974609375
2023-05-15T10:02:21.554Z,9.99755859375
2023-05-15T10:12:21.468Z,9.99755859375
2023-05-15T10:22:21.519Z,9.99755859375
2023-05-15T10:32:21.418Z,9.99755859375
2023-05-15T10:42:21.353Z,10.198974609375
2023-05-15T10:52:21.191Z,10.302734375
2023-05-15T11:02:21.547Z,10.198974609375
2023-05-15T11:12:21.236Z,10.198974609375
2023-05-15T11:22:21.222Z,10.302734375
2023-05-15T11:32:20.928Z,10.101318359375
2023-05-15T11:42:20.869Z,10.101318359375
2023-05-15T11:52:20.790Z,10.302734375
2023-05-15T12:02:21.035Z,10.400390625
2023-05-15T12:12:20.638Z,10.400390625
2023-05-15T12:22:20.588Z,10.302734375
2023-05-15T12:32:20.524Z,10.400390625
2023-05-15T12:42:20.546Z,10.302734375
2023-05-15T12:52:20.395Z,10.400390625
2023-05-15T13:02:22.573Z,10.302734375
2023-05-15T13:12:20.604Z,10.400390625
2023-05-15T13:22:20.345Z,10.302734375
2023-05-15T13:32:20.174Z,10.302734375
2023-05-15T13:42:20.171Z,10.400390625
2023-05-15T13:52:20.035Z,10.302734375
2023-05-15T14:02:19.958Z,10.302734375
2023-05-15T14:12:19.817Z,10.302734375
2023-05-15T14:22:19.895Z,10.302734375
2023-05-15T14:32:19.762Z,10.302734375
2023-05-15T14:42:19.637Z,10.198974609375
2023-05-15T14:52:19.516Z,10.101318359375
2023-05-15T15:02:19.430Z,10.101318359375
2023-05-15T15:12:19.379Z,10.101318359375
2023-05-15T15:22:19.334Z,9.99755859375
2023-05-15T15:32:19.258Z,9.99755859375
2023-05-15T15:42:19.206Z,10.101318359375
2023-05-15T15:52:19.074Z,10.101318359375
2023-05-15T16:02:19.313Z,10.101318359375
2023-05-15T16:12:18.968Z,10.101318359375
2023-05-15T16:22:19.367Z,10.101318359375
2023-05-15T16:32:18.794Z,10.198974609375
2023-05-15T16:42:18.748Z,10.101318359375
2023-05-15T16:52:18.661Z,9.99755859375
2023-05-15T17:02:18.715Z,9.89990234375
2023-05-15T17:12:18.525Z,9.80224609375
2023-05-15T17:22:18.962Z,9.698486328125
2023-05-15T17:32:18.496Z,9.600830078125
2023-05-15T17:42:18.612Z,9.600830078125
2023-05-15T17:52:18.230Z,9.3994140625
2023-05-15T18:02:18.261Z,9.3017578125
2023-05-15T18:12:18.215Z,9.4970703125
2023-05-15T18:22:18.157Z,9.4970703125
2023-05-15T18:32:17.944Z,9.600830078125
2023-05-15T18:42:17.899Z,9.4970703125
2023-05-15T18:52:17.829Z,9.600830078125
2023-05-15T19:02:17.980Z,9.3994140625
2023-05-15T19:12:17.677Z,9.3017578125
2023-05-15T19:22:17.874Z,9.3017578125
2023-05-15T19:32:17.573Z,9.100341796875
2023-05-15T19:42:17.528Z,9.002685546875
2023-05-15T19:52:17.404Z,8.89892578125
2023-05-15T20:02:17.347Z,8.89892578125
2023-05-15T20:12:17.248Z,9.002685546875
2023-05-15T20:22:17.199Z,9.3017578125
2023-05-15T20:32:17.147Z,9.600830078125
2023-05-15T20:42:17.031Z,9.80224609375
2023-05-15T20:52:16.964Z,9.99755859375
2023-05-15T21:02:16.956Z,10.198974609375
2023-05-15T21:12:16.844Z,10.400390625
2023-05-15T21:22:16.761Z,10.699462890625
2023-05-15T21:32:16.723Z,10.90087890625
2023-05-15T21:42:16.630Z,11.102294921875
2023-05-15T21:52:16.566Z,11.602783203125
2023-05-15T22:02:16.519Z,11.4013671875
2023-05-15T22:12:16.536Z,11.602783203125
2023-05-15T22:22:16.633Z,12.298583984375
2023-05-15T22:32:16.410Z,12.59765625
2023-05-15T22:42:16.967Z,12.5
2023-05-15T22:52:16.179Z,12.59765625
2023-05-15T23:02:21.867Z,12.90283203125
2023-05-15T23:12:16.016Z,13.19580078125
2023-05-15T23:22:16.036Z,12.90283203125
2023-05-15T23:32:15.850Z,13.19580078125
2023-05-15T23:42:15.795Z,13.00048828125
2023-05-15T23:52:15.926Z,14.29443359375
